createdAt,value
2019-04-20T00:00:29.313Z,6.3
2019-04-20T00:01:31.942Z,6.6
2019-04-20T00:02:29.519Z,6.8
2019-04-20T00:03:30.778Z,7.2
2019-04-20T00:04:32.343Z,6.7
2019-04-20T00:05:28.397Z,6.8
2019-04-20T00:06:49.555Z,6.3
2019-04-20T00:07:31.249Z,6.9
2019-04-20T00:08:31.835Z,6.8
2019-04-20T00:10:08.420Z,7.1
2019-04-20T00:10:30.216Z,6.6
2019-04-20T00:11:40.818Z,6.8
2019-04-20T00:12:36.409Z,6.8
2019-04-20T00:13:40.413Z,7.3
2019-04-20T00:14:32.062Z,7.1
2019-04-20T00:15:30.119Z,6.7
2019-04-20T00:16:29.299Z,6.8
2019-04-20T00:17:28.698Z,6.8
2019-04-20T00:18:34.277Z,6.7
2019-04-20T00:19:37.032Z,6.4
2019-04-20T00:20:32.092Z,7.8
2019-04-20T00:21:29.251Z,7
2019-04-20T00:22:34.068Z,7.1
2019-04-20T00:23:35.122Z,7.3
2019-04-20T00:24:33.586Z,7.1
2019-04-20T00:25:41.564Z,7.2
2019-04-20T00:26:59.093Z,6.7
2019-04-20T00:27:48.452Z,7
2019-04-20T00:28:39.613Z,7.3
2019-04-20T00:29:44.669Z,7
2019-04-20T00:30:50.176Z,7.5
2019-04-20T00:31:42.696Z,7.3
2019-04-20T00:32:46.310Z,8.2
2019-04-20T00:33:42.117Z,10.1
2019-04-20T00:34:33.726Z,7.5
2019-04-20T00:35:29.745Z,7.4
2019-04-20T00:36:29.140Z,7.3
2019-04-20T00:37:29.734Z,7.1
2019-04-20T00:38:34.941Z,7
2019-04-20T00:39:30.104Z,7.3
2019-04-20T00:40:30.563Z,6.9
2019-04-20T00:41:33.955Z,7.4
2019-04-20T00:42:36.513Z,7.2
2019-04-20T00:43:32.763Z,7.2
2019-04-20T00:44:35.719Z,7.1
2019-04-20T00:45:33.653Z,7.5
2019-04-20T00:46:36.836Z,7.3
2019-04-20T00:47:41.763Z,7.2
2019-04-20T00:48:41.244Z,6.8
2019-04-20T00:49:44.390Z,6.7
2019-04-20T00:50:44.269Z,7.1
2019-04-20T00:51:44.715Z,7.2
2019-04-20T00:52:46.619Z,7
2019-04-20T00:53:37.948Z,7.5
2019-04-20T00:54:30.922Z,6.8
2019-04-20T00:55:30.057Z,7.1
2019-04-20T00:56:30.931Z,7.5
2019-04-20T00:57:36.726Z,8.1
2019-04-20T00:58:38.844Z,8.2
2019-04-20T00:59:51.276Z,8
2019-04-20T01:00:45.865Z,7.4
2019-04-20T01:01:51.721Z,7
2019-04-20T01:02:43.211Z,7
2019-04-20T01:03:46.095Z,6.9
2019-04-20T01:04:53.483Z,7
2019-04-20T01:05:51.914Z,7
2019-04-20T01:06:46.175Z,6.9
2019-04-20T01:07:38.459Z,7
2019-04-20T01:08:31.954Z,7
2019-04-20T01:09:30.942Z,7.1
2019-04-20T01:10:38.161Z,7.1
2019-04-20T01:13:17.271Z,7.4
2019-04-20T01:13:28.725Z,7.1
2019-04-20T01:14:34.740Z,7.5
2019-04-20T01:15:37.424Z,7.4
2019-04-20T01:16:35.264Z,7.6
2019-04-20T01:17:27.826Z,7.2
2019-04-20T01:18:27.050Z,7.4
2019-04-20T01:21:13.753Z,7.5
2019-04-20T01:21:25.296Z,7.6
2019-04-20T01:22:25.358Z,7.4
2019-04-20T01:23:26.790Z,7.3
2019-04-20T01:24:29.536Z,7
2019-04-20T01:25:28.845Z,7.5
2019-04-20T01:26:43.286Z,7.2
2019-04-20T01:27:37.269Z,7.6
2019-04-20T01:28:37.156Z,7.5
2019-04-20T01:29:32.217Z,7.7
2019-04-20T01:30:30.025Z,7.7
2019-04-20T01:31:31.937Z,7.9
2019-04-20T01:32:34.141Z,7.3
2019-04-20T01:33:36.352Z,7.7
2019-04-20T01:34:35.587Z,8.2
2019-04-20T01:35:39.016Z,7.7
2019-04-20T01:36:40.467Z,7.7
2019-04-20T01:37:35.942Z,8.1
2019-04-20T01:38:39.763Z,8.3
2019-04-20T01:39:31.593Z,7.7
2019-04-20T01:40:25.213Z,8
2019-04-20T01:43:01.555Z,7.6
2019-04-20T01:44:01.045Z,10.3
2019-04-20T01:45:03.337Z,11.1
2019-04-20T01:46:09.059Z,11
2019-04-20T01:47:05.254Z,9
2019-04-20T01:48:03.345Z,9
2019-04-20T01:49:07.767Z,8.5
2019-04-20T01:50:07.508Z,8.5
2019-04-20T01:51:09.709Z,8.1
2019-04-20T01:52:10.448Z,7.7
2019-04-20T01:53:12.254Z,7.7
2019-04-20T01:54:15.714Z,7.8
2019-04-20T01:55:15.574Z,7.4
2019-04-20T01:56:16.830Z,7.7
2019-04-20T01:57:10.117Z,7.9
2019-04-20T01:58:23.547Z,8
2019-04-20T01:59:19.399Z,7.8
2019-04-20T02:00:09.057Z,7.4
2019-04-20T02:01:09.624Z,8
2019-04-20T02:02:06.853Z,8
2019-04-20T02:03:05.488Z,8
2019-04-20T02:04:04.712Z,8.3
2019-04-20T02:05:08.645Z,7.3
2019-04-20T02:06:08.203Z,7.5
2019-04-20T02:07:05.394Z,7.6
2019-04-20T02:08:06.694Z,7.9
2019-04-20T02:09:10.017Z,8.2
2019-04-20T02:10:07.971Z,7.5
2019-04-20T02:11:06.128Z,7.6
2019-04-20T02:12:10.472Z,7.3
2019-04-20T02:13:06.503Z,7.4
2019-04-20T02:14:07.257Z,7.5
2019-04-20T02:15:07.249Z,8
2019-04-20T02:16:11.210Z,7.6
2019-04-20T02:17:14.552Z,7.3
2019-04-20T02:18:17.416Z,7.4
2019-04-20T02:19:18.547Z,7.5
2019-04-20T02:20:22.652Z,7.6
2019-04-20T02:21:19.489Z,7.4
2019-04-20T02:22:15.545Z,7.5
2019-04-20T02:23:17.168Z,7.1
2019-04-20T02:24:07.837Z,7.3
2019-04-20T02:25:05.822Z,7.6
2019-04-20T02:26:05.132Z,7.4
2019-04-20T02:27:04.242Z,7.5
2019-04-20T02:28:21.325Z,7.5
2019-04-20T02:29:30.354Z,7.6
2019-04-20T02:30:37.896Z,7.2
2019-04-20T02:31:40.557Z,7.6
2019-04-20T02:32:26.192Z,7.5
2019-04-20T02:33:41.791Z,7.7
2019-04-20T02:34:38.945Z,7.5
2019-04-20T02:35:42.376Z,7.1
2019-04-20T02:36:57.688Z,7.4
2019-04-20T02:37:48.457Z,7.7
2019-04-20T02:38:48.575Z,7.6
2019-04-20T02:39:50.683Z,8.1
2019-04-20T02:40:46.237Z,8.2
2019-04-20T02:43:46.294Z,7.6
2019-04-20T02:44:40.207Z,8.2
2019-04-20T02:45:39.751Z,8.3
2019-04-20T02:46:40.612Z,9.4
2019-04-20T02:47:40.156Z,8.8
2019-04-20T02:48:39.156Z,8.5
2019-04-20T02:50:35.936Z,8
2019-04-20T02:51:40.681Z,8.1
2019-04-20T02:52:55.709Z,8
2019-04-20T02:53:49.537Z,7.8
2019-04-20T02:55:39.557Z,8.1
2019-04-20T02:58:41.011Z,8.1
2019-04-20T03:00:29.534Z,8.4
2019-04-20T03:01:26.539Z,8
2019-04-20T03:02:21.691Z,7.6
2019-04-20T03:03:16.853Z,8.5
2019-04-20T03:04:20.110Z,8.4
2019-04-20T03:05:20.309Z,8.1
2019-04-20T03:06:19.377Z,8.1
2019-04-20T03:07:18.714Z,8.4
2019-04-20T03:08:21.984Z,8.2
2019-04-20T03:09:31.384Z,8.7
2019-04-20T03:10:33.716Z,8.8
2019-04-20T03:11:39.370Z,8.3
2019-04-20T03:12:32.701Z,8.7
2019-04-20T03:13:31.858Z,8
2019-04-20T03:14:26.367Z,8.8
2019-04-20T03:15:32.622Z,8.6
2019-04-20T03:16:24.036Z,8.8
2019-04-20T03:17:32.481Z,8.8
2019-04-20T03:18:25.098Z,9.2
2019-04-20T03:19:23.184Z,8.2
2019-04-20T03:20:26.918Z,8.2
2019-04-20T03:21:31.265Z,8.7
2019-04-20T03:22:39.169Z,8.4
2019-04-20T03:23:35.142Z,8.4
2019-04-20T03:24:37.234Z,8.7
2019-04-20T03:25:29.472Z,8.7
2019-04-20T03:26:27.334Z,9.1
2019-04-20T03:27:23.519Z,8.5
2019-04-20T03:28:30.846Z,8.8
2019-04-20T03:29:20.340Z,9
2019-04-20T03:31:14.982Z,9.2
2019-04-20T03:31:52.114Z,9.6
2019-04-20T03:33:48.873Z,9.4
2019-04-20T03:35:32.786Z,8.9
2019-04-20T03:36:33.379Z,9.6
2019-04-20T03:37:30.428Z,9.7
2019-04-20T03:38:26.064Z,9.3
2019-04-20T03:39:28.318Z,9.3
2019-04-20T03:40:23.990Z,9.2
2019-04-20T03:41:19.242Z,9.2
2019-04-20T03:42:11.057Z,9.6
2019-04-20T03:43:09.956Z,9.8
2019-04-20T03:44:12.512Z,9.4
2019-04-20T03:45:14.722Z,9.2
2019-04-20T03:46:13.148Z,9.6
2019-04-20T03:47:13.232Z,9.4
2019-04-20T03:48:29.225Z,9.9
2019-04-20T03:49:37.709Z,9.6
2019-04-20T03:50:30.631Z,10.5
2019-04-20T03:51:33.180Z,9.9
2019-04-20T03:52:27.287Z,9.6
2019-04-20T03:53:27.604Z,9.9
2019-04-20T03:54:24.232Z,9.8
2019-04-20T03:55:25.357Z,10.2
2019-04-20T03:56:33.353Z,9.7
2019-04-20T03:57:34.206Z,9.9
2019-04-20T03:58:28.383Z,9.9
2019-04-20T03:59:23.244Z,10.7
2019-04-20T04:00:30.304Z,10.3
2019-04-20T04:01:47.212Z,9.8
2019-04-20T04:02:52.256Z,10.3
2019-04-20T04:03:34.526Z,10
2019-04-20T04:04:33.456Z,10.4
2019-04-20T04:05:27.317Z,10.4
2019-04-20T04:06:22.757Z,10.5
2019-04-20T04:07:19.362Z,10.4
2019-04-20T04:08:21.130Z,10.8
2019-04-20T04:09:23.535Z,11.2
2019-04-20T04:10:24.632Z,11
2019-04-20T04:11:25.905Z,10.7
2019-04-20T04:12:20.258Z,10.7
2019-04-20T04:13:11.742Z,11.2
2019-04-20T04:14:11.537Z,10.8
2019-04-20T04:15:10.624Z,10.5
2019-04-20T04:16:13.662Z,10.9
2019-04-20T04:17:13.204Z,10.4
2019-04-20T04:18:17.644Z,10.8
2019-04-20T04:19:19.629Z,11
2019-04-20T04:20:14.729Z,10.7
2019-04-20T04:21:17.164Z,10.9
2019-04-20T04:22:20.976Z,10.5
2019-04-20T04:23:28.532Z,11
2019-04-20T04:24:23.414Z,11.3
2019-04-20T04:25:22.610Z,11.1
2019-04-20T04:26:29.936Z,11.3
2019-04-20T04:27:32.243Z,11.5
2019-04-20T04:28:28.139Z,11.8
2019-04-20T04:29:35.451Z,10.9
2019-04-20T04:30:25.183Z,11.1
2019-04-20T04:31:32.137Z,11.3
2019-04-20T04:32:51.198Z,10.8
2019-04-20T04:34:28.646Z,11.7
2019-04-20T04:35:23.164Z,11.1
2019-04-20T04:36:25.285Z,11.8
2019-04-20T04:37:32.326Z,11.2
2019-04-20T04:38:37.207Z,11.8
2019-04-20T04:39:30.553Z,11.6
2019-04-20T04:40:39.015Z,11.4
2019-04-20T04:41:30.705Z,11.6
2019-04-20T04:42:34.025Z,12.1
2019-04-20T04:43:31.439Z,11.1
2019-04-20T04:44:26.017Z,11.4
2019-04-20T04:45:16.194Z,11.4
2019-04-20T04:46:14.453Z,11.5
2019-04-20T04:47:14.889Z,11.5
2019-04-20T04:48:20.285Z,11.5
2019-04-20T04:49:19.379Z,11.5
2019-04-20T04:50:18.219Z,11.4
2019-04-20T04:51:20.348Z,11.8
2019-04-20T04:52:17.878Z,11.7
2019-04-20T04:53:27.027Z,11.7
2019-04-20T04:54:25.763Z,11.5
2019-04-20T04:55:25.543Z,11.8
2019-04-20T04:56:18.005Z,11.5
2019-04-20T04:57:15.641Z,12
2019-04-20T04:58:14.842Z,11.4
2019-04-20T04:59:13.503Z,11.6
2019-04-20T05:00:17.537Z,11.7
2019-04-20T05:01:20.375Z,11.5
2019-04-20T05:02:15.932Z,12.1
2019-04-20T05:03:32.651Z,11.9
2019-04-20T05:04:31.405Z,12.1
2019-04-20T05:05:35.405Z,12.1
2019-04-20T05:06:29.792Z,12.5
2019-04-20T05:07:28.864Z,12.3
2019-04-20T05:08:23.967Z,12.5
2019-04-20T05:09:17.488Z,12.6
2019-04-20T05:10:16.019Z,11.7
2019-04-20T05:11:17.172Z,12.4
2019-04-20T05:12:18.566Z,12.8
2019-04-20T05:13:16.033Z,12.4
2019-04-20T05:14:21.564Z,12.6
2019-04-20T05:15:32.045Z,12.6
2019-04-20T05:16:37.933Z,13
2019-04-20T05:17:39.128Z,13.4
2019-04-20T05:18:41.119Z,13
2019-04-20T05:19:36.342Z,12.9
2019-04-20T05:20:33.690Z,12.8
2019-04-20T05:21:36.198Z,12.2
2019-04-20T05:22:36.504Z,12.9
2019-04-20T05:23:31.587Z,13.2
2019-04-20T05:24:28.707Z,13.1
2019-04-20T05:25:30.760Z,11.9
2019-04-20T05:26:35.753Z,12.6
2019-04-20T05:27:39.000Z,11.8
2019-04-20T05:28:30.426Z,12.5
2019-04-20T05:29:23.762Z,12.8
2019-04-20T05:30:18.037Z,11.8
2019-04-20T05:31:17.166Z,12.5
2019-04-20T05:32:29.370Z,12.7
2019-04-20T05:33:27.428Z,12.2
2019-04-20T05:34:38.150Z,11.7
2019-04-20T05:35:35.108Z,11.4
2019-04-20T05:37:39.609Z,11.9
2019-04-20T05:38:41.165Z,12.1
2019-04-20T05:39:37.825Z,11.6
2019-04-20T05:40:38.155Z,11.9
2019-04-20T05:41:36.914Z,12
2019-04-20T05:42:35.409Z,12.4
2019-04-20T05:43:36.118Z,11.6
2019-04-20T05:44:40.797Z,11.8
2019-04-20T05:45:33.551Z,12.1
2019-04-20T05:46:36.084Z,11.2
2019-04-20T05:47:38.417Z,12.2
2019-04-20T05:48:38.054Z,12.7
2019-04-20T05:49:34.222Z,12.5
2019-04-20T05:50:36.153Z,12
2019-04-20T05:51:43.087Z,12.5
2019-04-20T05:53:38.300Z,12.2
2019-04-20T05:54:38.663Z,12
2019-04-20T05:55:38.336Z,13.2
2019-04-20T05:56:45.349Z,12.1
2019-04-20T05:57:41.448Z,12.1
2019-04-20T05:58:38.273Z,12
2019-04-20T05:59:40.767Z,11.4
2019-04-20T06:00:47.253Z,12.4
2019-04-20T06:01:45.094Z,12.5
2019-04-20T06:02:36.206Z,12.2
2019-04-20T06:03:36.637Z,12.4
2019-04-20T06:04:53.769Z,12.7
2019-04-20T06:05:44.752Z,11.7
2019-04-20T06:06:44.210Z,12.4
2019-04-20T06:07:41.870Z,12.3
2019-04-20T06:08:45.049Z,11.6
2019-04-20T06:09:39.507Z,11.9
2019-04-20T06:10:44.805Z,11.9
2019-04-20T06:11:54.868Z,12
2019-04-20T06:12:39.849Z,12.7
2019-04-20T06:13:32.263Z,12.3
2019-04-20T06:14:39.098Z,12.5
2019-04-20T06:15:42.665Z,12.1
2019-04-20T06:17:43.161Z,12.3
2019-04-20T06:18:36.820Z,12.5
2019-04-20T06:19:39.080Z,12.2
2019-04-20T06:21:02.033Z,12.4
2019-04-20T06:21:40.999Z,11.9
2019-04-20T06:22:40.593Z,11.9
2019-04-20T06:23:50.507Z,12.3
2019-04-20T06:24:51.451Z,11.8
2019-04-20T06:25:52.757Z,11.5
2019-04-20T06:27:03.087Z,11.8
2019-04-20T06:27:44.715Z,12.1
2019-04-20T06:28:38.617Z,12
2019-04-20T06:29:45.396Z,11.6
2019-04-20T06:30:34.568Z,11.5
2019-04-20T06:31:45.280Z,11.6
2019-04-20T06:32:44.059Z,11.8
2019-04-20T06:33:59.673Z,11.4
2019-04-20T06:34:41.164Z,12.2
2019-04-20T06:36:00.468Z,11.7
2019-04-20T06:37:53.583Z,12
2019-04-20T06:40:03.347Z,12.1
2019-04-20T06:40:53.808Z,11.6
2019-04-20T06:42:47.959Z,12.9
2019-04-20T06:43:52.604Z,13.1
2019-04-20T06:44:47.982Z,12.2
2019-04-20T06:45:50.939Z,12.2
2019-04-20T06:46:52.281Z,12.3
2019-04-20T06:47:51.349Z,12.2
2019-04-20T06:48:51.168Z,12.4
2019-04-20T06:50:01.116Z,12.7
2019-04-20T06:50:43.844Z,12.1
2019-04-20T06:51:47.217Z,12.5
2019-04-20T06:52:42.101Z,12.7
2019-04-20T06:53:46.808Z,11.7
2019-04-20T06:54:41.746Z,11.5
2019-04-20T06:55:48.253Z,12.2
2019-04-20T06:56:47.016Z,12.1
2019-04-20T06:57:44.857Z,12.1
2019-04-20T06:58:49.103Z,12.4
2019-04-20T06:59:45.688Z,11.9
2019-04-20T07:00:46.256Z,13
2019-04-20T07:01:56.004Z,11.7
2019-04-20T07:02:47.993Z,12.3
2019-04-20T07:05:05.164Z,12
2019-04-20T07:05:50.346Z,11.8
2019-04-20T07:08:56.201Z,15.8
2019-04-20T07:10:51.217Z,11
2019-04-20T07:11:46.074Z,10.3
2019-04-20T07:12:44.834Z,11.9
2019-04-20T07:13:39.100Z,11.3
2019-04-20T07:14:40.192Z,11.4
2019-04-20T07:15:39.741Z,10.7
2019-04-20T07:16:44.454Z,11.1
2019-04-20T07:17:53.179Z,10.8
2019-04-20T07:18:49.493Z,11.5
2019-04-20T07:19:44.242Z,11.4
2019-04-20T07:20:55.205Z,10.9
2019-04-20T07:22:01.657Z,11.5
2019-04-20T07:22:50.888Z,10.5
2019-04-20T07:23:53.230Z,10.6
2019-04-20T07:24:51.549Z,10.8
2019-04-20T07:26:01.708Z,10.9
2019-04-20T07:26:48.991Z,10.8
2019-04-20T07:27:53.174Z,10.6
2019-04-20T07:28:52.358Z,11.1
2019-04-20T07:29:51.295Z,10.8
2019-04-20T07:30:50.134Z,10.9
2019-04-20T07:31:48.335Z,11.4
2019-04-20T07:33:51.913Z,11.1
2019-04-20T07:34:51.155Z,10.8
2019-04-20T07:35:50.352Z,10.9
2019-04-20T07:36:45.383Z,10.9
2019-04-20T07:38:53.716Z,10.4
2019-04-20T07:39:53.362Z,10.9
2019-04-20T07:40:49.747Z,11.3
2019-04-20T07:41:54.284Z,11
2019-04-20T07:44:02.766Z,10.7
2019-04-20T07:44:54.664Z,10.8
2019-04-20T07:45:48.605Z,10.6
2019-04-20T07:47:01.342Z,11.4
2019-04-20T07:47:52.280Z,11.3
2019-04-20T07:48:53.911Z,10.4
2019-04-20T07:49:49.477Z,10.5
2019-04-20T07:50:44.432Z,11
2019-04-20T07:51:37.311Z,10.9
2019-04-20T07:52:43.719Z,11.1
2019-04-20T07:53:44.915Z,11.6
2019-04-20T07:55:09.749Z,10.6
2019-04-20T07:55:53.626Z,10.4
2019-04-20T07:56:53.544Z,10.8
2019-04-20T07:57:46.566Z,12.2
2019-04-20T07:58:40.985Z,11.7
2019-04-20T07:59:50.791Z,11.3
2019-04-20T08:01:01.185Z,11.3
2019-04-20T08:02:00.401Z,11.6
2019-04-20T08:02:57.084Z,11.2
2019-04-20T08:03:55.416Z,11.5
2019-04-20T08:04:50.849Z,11.1
2019-04-20T08:05:46.333Z,10.9
2019-04-20T08:06:42.940Z,11.4
2019-04-20T08:07:43.027Z,12.1
2019-04-20T08:08:48.632Z,12.2
2019-04-20T08:09:43.744Z,11.9
2019-04-20T08:10:51.389Z,11.6
2019-04-20T08:11:54.737Z,11.3
2019-04-20T08:13:00.357Z,11.2
2019-04-20T08:13:56.679Z,11.4
2019-04-20T08:15:03.389Z,11.3
2019-04-20T08:15:56.743Z,11.4
2019-04-20T08:17:08.954Z,11.2
2019-04-20T08:17:59.540Z,11.2
2019-04-20T08:18:53.437Z,11.3
2019-04-20T08:19:50.700Z,11.3
2019-04-20T08:20:57.474Z,11.3
2019-04-20T08:21:50.892Z,10.5
2019-04-20T08:22:58.399Z,11.2
2019-04-20T08:23:55.258Z,10.7
2019-04-20T08:24:51.747Z,10.3
2019-04-20T08:25:45.327Z,10
2019-04-20T08:26:41.979Z,10.2
2019-04-20T08:27:35.860Z,10.9
2019-04-20T08:28:44.576Z,10.4
2019-04-20T08:29:48.205Z,10.8
2019-04-20T08:30:51.111Z,10.7
2019-04-20T08:31:53.386Z,11
2019-04-20T08:32:50.462Z,10.8
2019-04-20T08:34:06.100Z,11.2
2019-04-20T08:34:57.534Z,10.4
2019-04-20T08:35:58.100Z,11.2
2019-04-20T08:36:50.715Z,10.7
2019-04-20T08:38:14.313Z,11.4
2019-04-20T08:39:12.589Z,10.7
2019-04-20T08:40:01.287Z,10.7
2019-04-20T08:40:53.094Z,11.1
2019-04-20T08:42:00.073Z,11
2019-04-20T08:43:02.186Z,10.5
2019-04-20T08:44:08.054Z,10.6
2019-04-20T08:45:58.514Z,10.7
2019-04-20T08:46:58.351Z,11
2019-04-20T08:48:02.596Z,10.6
2019-04-20T08:48:55.660Z,10.5
2019-04-20T08:50:02.936Z,10.5
2019-04-20T08:50:57.035Z,10.9
2019-04-20T08:52:22.720Z,10.6
2019-04-20T08:53:08.720Z,11.1
2019-04-20T08:53:55.947Z,11.1
2019-04-20T08:55:01.034Z,10.4
2019-04-20T08:55:52.339Z,11.9
2019-04-20T08:56:44.747Z,11.2
2019-04-20T08:57:38.167Z,11.6
2019-04-20T08:58:37.213Z,11.7
2019-04-20T08:59:40.121Z,11.8
2019-04-20T09:00:42.779Z,10.5
2019-04-20T09:01:39.356Z,11.5
2019-04-20T09:02:41.125Z,11.3
2019-04-20T09:03:49.511Z,11.1
2019-04-20T09:04:47.754Z,11.1
2019-04-20T09:05:48.653Z,11.2
2019-04-20T09:06:51.807Z,11.2
2019-04-20T09:07:48.818Z,10.7
2019-04-20T09:08:50.197Z,11.4
2019-04-20T09:10:00.140Z,11.3
2019-04-20T09:10:53.282Z,11.4
2019-04-20T09:12:08.841Z,11.2
2019-04-20T09:12:53.037Z,11.3
2019-04-20T09:13:45.947Z,11.3
2019-04-20T09:14:41.080Z,11.3
2019-04-20T09:15:40.397Z,11.3
2019-04-20T09:16:47.428Z,11.4
2019-04-20T09:17:47.112Z,11.4
2019-04-20T09:18:47.136Z,11.7
2019-04-20T09:19:50.167Z,11.3
2019-04-20T09:20:50.465Z,12
2019-04-20T09:21:47.834Z,11.5
2019-04-20T09:22:48.970Z,11.7
2019-04-20T09:23:55.928Z,11.5
2019-04-20T09:24:57.464Z,12.1
2019-04-20T09:25:59.919Z,11.8
2019-04-20T09:26:54.099Z,11.6
2019-04-20T09:27:47.486Z,11.7
2019-04-20T09:28:54.224Z,11.7
2019-04-20T09:29:58.011Z,12.6
2019-04-20T09:30:50.383Z,11.5
2019-04-20T09:31:51.720Z,11.9
2019-04-20T09:32:53.325Z,12.1
2019-04-20T09:33:55.336Z,11.6
2019-04-20T09:34:59.475Z,11.8
2019-04-20T09:35:53.027Z,12
2019-04-20T09:36:53.296Z,11.2
2019-04-20T09:37:59.489Z,11.3
2019-04-20T09:38:52.478Z,11.3
2019-04-20T09:40:02.064Z,12.2
2019-04-20T09:40:55.254Z,11.4
2019-04-20T09:41:58.416Z,12
2019-04-20T09:42:42.903Z,11.7
2019-04-20T09:43:41.127Z,11.8
2019-04-20T09:44:45.936Z,11.8
2019-04-20T09:45:44.878Z,11.4
2019-04-20T09:46:45.913Z,12
2019-04-20T09:47:46.769Z,10.7
2019-04-20T09:48:49.009Z,10.8
2019-04-20T09:49:51.723Z,11.8
2019-04-20T09:51:02.127Z,11.2
2019-04-20T09:51:57.225Z,10.8
2019-04-20T09:52:56.728Z,10.3
2019-04-20T09:53:50.263Z,10.5
2019-04-20T09:54:58.810Z,10.8
2019-04-20T09:56:01.398Z,11
2019-04-20T09:57:03.072Z,10.3
2019-04-20T09:57:57.270Z,10.8
2019-04-20T09:59:00.575Z,11.4
2019-04-20T10:00:01.193Z,10.7
2019-04-20T10:00:57.841Z,11
2019-04-20T10:01:47.159Z,10.9
2019-04-20T10:02:44.551Z,10.5
2019-04-20T10:03:43.400Z,10.9
2019-04-20T10:04:43.870Z,10.2
2019-04-20T10:05:43.349Z,10.5
2019-04-20T10:06:43.573Z,11
2019-04-20T10:07:43.900Z,11.2
2019-04-20T10:08:50.745Z,10.8
2019-04-20T10:09:45.531Z,11.5
2019-04-20T10:10:45.845Z,10.8
2019-04-20T10:11:45.733Z,10.9
2019-04-20T10:12:44.267Z,11.1
2019-04-20T10:13:43.933Z,11.3
2019-04-20T10:14:44.798Z,11.1
2019-04-20T10:15:44.088Z,10.9
2019-04-20T10:16:44.096Z,10.9
2019-04-20T10:17:43.702Z,10
2019-04-20T10:18:46.696Z,11
2019-04-20T10:19:46.192Z,11
2019-04-20T10:20:45.302Z,10.8
2019-04-20T10:21:43.930Z,10.8
2019-04-20T10:22:44.697Z,10.9
2019-04-20T10:23:44.880Z,10.5
2019-04-20T10:24:47.123Z,10.3
2019-04-20T10:25:46.718Z,10.1
2019-04-20T10:26:45.318Z,10.2
2019-04-20T10:27:45.411Z,10.8
2019-04-20T10:28:45.642Z,11.4
2019-04-20T10:29:45.729Z,11.2
2019-04-20T10:30:44.661Z,11.7
2019-04-20T10:31:50.374Z,11.5
2019-04-20T10:32:50.433Z,10.9
2019-04-20T10:33:46.026Z,11.1
2019-04-20T10:34:46.400Z,11.2
2019-04-20T10:35:45.515Z,10.9
2019-04-20T10:36:45.827Z,12.1
2019-04-20T10:37:47.226Z,12
2019-04-20T10:38:46.504Z,11.5
2019-04-20T10:39:46.666Z,12.1
2019-04-20T10:40:56.952Z,11.6
2019-04-20T10:41:51.091Z,12.3
2019-04-20T10:42:47.810Z,12
2019-04-20T10:43:46.993Z,11.4
2019-04-20T10:44:47.127Z,11.2
2019-04-20T10:45:46.787Z,12.4
2019-04-20T10:46:47.008Z,12.1
2019-04-20T10:47:47.357Z,11.5
2019-04-20T10:48:49.813Z,12
2019-04-20T10:49:47.387Z,12
2019-04-20T10:50:47.198Z,12.5
2019-04-20T10:51:47.532Z,12.2
2019-04-20T10:52:47.718Z,12.2
2019-04-20T10:53:46.528Z,11.5
2019-04-20T10:54:46.500Z,11.4
2019-04-20T10:55:47.374Z,10.7
2019-04-20T10:56:47.778Z,11.8
2019-04-20T10:57:46.677Z,11.3
2019-04-20T10:58:47.504Z,12.5
2019-04-20T10:59:47.732Z,12.7
2019-04-20T11:00:49.872Z,12.2
2019-04-20T11:01:47.931Z,12.1
2019-04-20T11:02:47.926Z,12
2019-04-20T11:03:48.193Z,12
2019-04-20T11:04:48.262Z,11.5
2019-04-20T11:05:48.889Z,11.6
2019-04-20T11:06:47.382Z,11.7
2019-04-20T11:07:48.407Z,11.8
2019-04-20T11:08:48.767Z,11.3
2019-04-20T11:10:02.034Z,10.3
2019-04-20T11:11:00.137Z,10.7
2019-04-20T11:11:50.195Z,10.3
2019-04-20T11:12:48.922Z,10.3
2019-04-20T11:13:47.998Z,10.1
2019-04-20T11:14:50.197Z,9.9
2019-04-20T11:15:50.433Z,9.7
2019-04-20T11:16:50.800Z,9.1
2019-04-20T11:17:49.516Z,8.9
2019-04-20T11:18:51.382Z,7.4
2019-04-20T11:19:49.539Z,7.9
2019-04-20T11:20:49.543Z,7.7
2019-04-20T11:21:50.221Z,7.4
2019-04-20T11:22:50.516Z,7.5
2019-04-20T11:23:50.060Z,7.5
2019-04-20T11:24:49.908Z,7.3
2019-04-20T11:25:50.477Z,7.5
2019-04-20T11:26:49.815Z,7.5
2019-04-20T11:27:50.118Z,7.3
2019-04-20T11:28:50.275Z,7.8
2019-04-20T11:29:50.150Z,8
2019-04-20T11:30:50.070Z,7.7
2019-04-20T11:31:51.416Z,7.3
2019-04-20T11:32:51.800Z,7.8
2019-04-20T11:33:50.334Z,8
2019-04-20T11:34:49.376Z,7.8
2019-04-20T11:35:49.915Z,8.4
2019-04-20T11:36:50.812Z,8.6
2019-04-20T11:37:51.238Z,8.7
2019-04-20T11:38:49.511Z,9.4
2019-04-20T11:39:50.779Z,9.7
2019-04-20T11:41:01.371Z,9.3
2019-04-20T11:41:51.722Z,9.2
2019-04-20T11:42:50.743Z,9
2019-04-20T11:43:49.757Z,9.8
2019-04-20T11:44:50.771Z,10
2019-04-20T11:45:51.076Z,10.6
2019-04-20T11:46:50.935Z,10.6
2019-04-20T11:47:50.008Z,11
2019-04-20T11:48:50.171Z,11.2
2019-04-20T11:49:51.304Z,10.6
2019-04-20T11:50:51.624Z,10.8
2019-04-20T11:51:51.751Z,11
2019-04-20T11:52:51.446Z,11.3
2019-04-20T11:53:50.561Z,11.9
2019-04-20T11:54:50.702Z,12.3
2019-04-20T11:55:52.004Z,12.8
2019-04-20T11:56:53.182Z,12.8
2019-04-20T11:57:52.080Z,13.1
2019-04-20T11:58:51.152Z,13.2
2019-04-20T11:59:51.154Z,13.2
2019-04-20T12:00:59.297Z,12.8
2019-04-20T12:01:58.818Z,12.6
2019-04-20T12:02:54.119Z,12.7
2019-04-20T12:04:01.595Z,12.8
2019-04-20T12:05:07.413Z,13.2
2019-04-20T12:05:55.686Z,12.9
2019-04-20T12:06:53.001Z,12.6
2019-04-20T12:07:53.122Z,13
2019-04-20T12:08:53.206Z,13.1
2019-04-20T12:09:53.461Z,12.7
2019-04-20T12:10:57.634Z,13
2019-04-20T12:12:06.676Z,13.2
2019-04-20T12:13:18.414Z,12.7
2019-04-20T12:13:52.735Z,12.3
2019-04-20T12:14:52.888Z,12.9
2019-04-20T12:15:53.844Z,12.6
2019-04-20T12:16:53.341Z,13.4
2019-04-20T12:17:53.624Z,13
2019-04-20T12:18:54.539Z,13.1
2019-04-20T12:19:55.533Z,13.3
2019-04-20T12:20:54.865Z,13.2
2019-04-20T12:21:53.903Z,13.5
2019-04-20T12:22:54.577Z,13.1
2019-04-20T12:23:54.095Z,14.3
2019-04-20T12:24:54.127Z,13.6
2019-04-20T12:25:54.407Z,14.1
2019-04-20T12:26:54.563Z,13.9
2019-04-20T12:27:57.339Z,13.7
2019-04-20T12:28:55.790Z,13.2
2019-04-20T12:29:54.616Z,12.9
2019-04-20T12:30:55.810Z,13.3
2019-04-20T12:31:59.003Z,12.8
2019-04-20T12:32:59.733Z,12.6
2019-04-20T12:33:55.970Z,12.5
2019-04-20T12:34:56.064Z,12.8
2019-04-20T12:35:56.363Z,12.9
2019-04-20T12:36:55.433Z,12.7
2019-04-20T12:37:56.858Z,12.9
2019-04-20T12:38:57.076Z,13.2
2019-04-20T12:39:57.430Z,14.2
2019-04-20T12:40:55.948Z,14.6
2019-04-20T12:42:00.378Z,13.9
2019-04-20T12:42:57.229Z,13.8
2019-04-20T12:43:56.176Z,14.5
2019-04-20T12:44:57.758Z,13.8
2019-04-20T12:45:56.366Z,13.8
2019-04-20T12:46:57.164Z,13.4
2019-04-20T12:47:57.630Z,13.9
2019-04-20T12:48:57.673Z,13.1
2019-04-20T12:49:57.675Z,13.3
2019-04-20T12:50:57.456Z,13.4
2019-04-20T12:51:59.986Z,12.2
2019-04-20T12:52:58.805Z,12.4
2019-04-20T12:53:58.127Z,12.3
2019-04-20T12:55:00.898Z,12.2
2019-04-20T12:55:58.790Z,11.3
2019-04-20T12:56:58.555Z,10.8
2019-04-20T12:57:58.693Z,11.1
2019-04-20T12:58:57.806Z,10.8
2019-04-20T12:59:57.589Z,10.6
2019-04-20T13:00:58.329Z,10.9
2019-04-20T13:01:57.871Z,10.5
2019-04-20T13:02:59.129Z,10.1
2019-04-20T13:03:59.775Z,10.5
2019-04-20T13:04:59.516Z,10.8
2019-04-20T13:05:58.251Z,10.5
2019-04-20T13:06:59.568Z,10.3
2019-04-20T13:08:00.806Z,10.6
2019-04-20T13:09:02.147Z,9.5
2019-04-20T13:10:02.053Z,9.5
2019-04-20T13:11:00.362Z,10.1
2019-04-20T13:12:03.365Z,9.9
2019-04-20T13:13:00.482Z,10.4
2019-04-20T13:13:59.003Z,9.3
2019-04-20T13:15:00.312Z,8.8
2019-04-20T13:16:00.389Z,9.2
2019-04-20T13:17:00.160Z,9
2019-04-20T13:17:59.192Z,9.8
2019-04-20T13:18:59.430Z,8.9
2019-04-20T13:19:59.542Z,9.4
2019-04-20T13:21:00.348Z,8.7
2019-04-20T13:22:01.069Z,8.7
2019-04-20T13:23:02.456Z,8.7
2019-04-20T13:24:00.942Z,8.1
2019-04-20T13:25:01.055Z,8.3
2019-04-20T13:26:02.155Z,8.3
2019-04-20T13:27:00.838Z,8.7
2019-04-20T13:28:00.924Z,7.8
2019-04-20T13:29:00.985Z,8
2019-04-20T13:30:00.815Z,7.8
2019-04-20T13:31:01.881Z,8.6
2019-04-20T13:32:00.194Z,7.5
2019-04-20T13:33:00.051Z,7.2
2019-04-20T13:34:01.047Z,7
2019-04-20T13:35:02.480Z,7.3
2019-04-20T13:36:01.875Z,7.5
2019-04-20T13:37:00.227Z,7.4
2019-04-20T13:38:00.369Z,7.4
2019-04-20T13:39:00.613Z,6.9
2019-04-20T13:40:02.893Z,7
2019-04-20T13:41:01.967Z,7
2019-04-20T13:42:10.142Z,7
2019-04-20T13:43:01.765Z,6.7
2019-04-20T13:44:01.832Z,7.1
2019-04-20T13:45:03.008Z,7.5
2019-04-20T13:46:00.858Z,9.4
2019-04-20T13:47:00.948Z,11.2
2019-04-20T13:48:01.176Z,11.6
2019-04-20T13:49:02.960Z,9
2019-04-20T13:50:03.031Z,7.1
2019-04-20T13:51:02.298Z,6.7
2019-04-20T13:52:02.198Z,6.8
2019-04-20T13:53:03.253Z,6.2
2019-04-20T13:54:06.158Z,6.8
2019-04-20T13:55:02.387Z,6.5
2019-04-20T13:56:01.634Z,6.4
2019-04-20T13:57:01.829Z,6.9
2019-04-20T13:58:02.362Z,6.4
2019-04-20T13:59:01.880Z,6.6
2019-04-20T14:00:02.196Z,6.7
2019-04-20T14:01:01.746Z,6.2
2019-04-20T14:02:02.813Z,6.2
2019-04-20T14:03:02.777Z,6.8